createdAt,value
2023-05-17T00:02:00.803Z,17.79
2023-05-17T00:04:28.544Z,17.88
2023-05-17T00:06:55.871Z,17.36
2023-05-17T00:09:23.179Z,17.42
2023-05-17T00:11:50.725Z,17.35
2023-05-17T00:14:18.095Z,17.70
2023-05-17T00:16:45.435Z,17.78
2023-05-17T00:19:13.014Z,17.96
2023-05-17T00:21:40.608Z,18.12
2023-05-17T00:24:09.340Z,17.96
2023-05-17T00:26:36.921Z,18.33
2023-05-17T00:29:04.381Z,17.73
2023-05-17T00:31:32.824Z,17.50
2023-05-17T00:34:00.293Z,17.72
2023-05-17T00:36:27.762Z,17.45
2023-05-17T00:38:55.443Z,17.71
2023-05-17T00:41:22.844Z,17.30
2023-05-17T00:43:50.235Z,17.19
2023-05-17T00:46:17.551Z,17.12
2023-05-17T00:48:45.080Z,16.94
2023-05-17T00:51:13.551Z,17.08
2023-05-17T00:53:40.997Z,17.08
2023-05-17T00:56:08.416Z,17.39
2023-05-17T00:58:37.178Z,17.12
2023-05-17T01:01:06.829Z,16.93
2023-05-17T01:03:34.357Z,17.09
2023-05-17T01:06:02.195Z,17.15
2023-05-17T01:08:29.838Z,17.27
2023-05-17T01:11:01.831Z,17.57
2023-05-17T01:13:36.162Z,17.79
2023-05-17T01:16:13.718Z,17.40
2023-05-17T01:18:51.355Z,17.23
2023-05-17T01:21:31.745Z,17.52
2023-05-17T01:24:17.270Z,17.28
2023-05-17T01:26:47.370Z,16.66
2023-05-17T01:29:17.168Z,17.10
2023-05-17T01:31:44.965Z,17.34
2023-05-17T01:34:13.161Z,17.36
2023-05-17T01:36:40.622Z,17.56
2023-05-17T01:39:09.396Z,17.59
2023-05-17T01:41:39.362Z,17.83
2023-05-17T01:44:12.610Z,17.77
2023-05-17T01:46:41.699Z,17.88
2023-05-17T01:49:12.416Z,17.80
2023-05-17T01:51:55.341Z,17.03
2023-05-17T01:54:26.416Z,17.30
2023-05-17T01:56:57.742Z,17.59
2023-05-17T01:59:25.880Z,17.42
2023-05-17T02:01:55.898Z,17.54
2023-05-17T02:04:23.504Z,17.13
2023-05-17T02:06:51.183Z,17.27
2023-05-17T02:09:18.646Z,17.28
2023-05-17T02:11:46.187Z,17.52
2023-05-17T02:14:13.634Z,17.53
2023-05-17T02:16:43.416Z,17.43
2023-05-17T02:19:13.613Z,17.24
2023-05-17T02:21:41.517Z,17.56
2023-05-17T02:24:09.073Z,17.64
2023-05-17T02:26:36.644Z,17.98
2023-05-17T02:29:04.266Z,18.05
2023-05-17T02:31:31.984Z,18.48
2023-05-17T02:33:59.549Z,18.26
2023-05-17T02:36:26.958Z,18.15
2023-05-17T02:38:54.347Z,17.98
2023-05-17T02:41:21.819Z,17.92
2023-05-17T02:43:49.685Z,17.56
2023-05-17T02:46:17.512Z,17.92
2023-05-17T02:48:45.241Z,18.01
2023-05-17T02:51:12.604Z,18.14
2023-05-17T02:53:39.990Z,18.15
2023-05-17T02:56:07.798Z,18.21
2023-05-17T02:58:36.428Z,18.44
2023-05-17T03:01:03.914Z,18.45
2023-05-17T03:03:32.002Z,18.19
2023-05-17T03:06:01.982Z,18.56
2023-05-17T03:08:29.989Z,18.58
2023-05-17T03:10:58.160Z,17.84
2023-05-17T03:13:25.686Z,18.14
2023-05-17T03:15:54.284Z,18.26
2023-05-17T03:18:22.010Z,18.46
2023-05-17T03:20:49.555Z,18.14
2023-05-17T03:23:17.879Z,17.88
2023-05-17T03:25:54.538Z,17.56
2023-05-17T03:28:22.120Z,17.94
2023-05-17T03:30:49.822Z,18.47
2023-05-17T03:33:17.510Z,18.61
2023-05-17T03:35:47.042Z,18.22
2023-05-17T03:38:14.948Z,18.28
2023-05-17T03:40:42.363Z,17.91
2023-05-17T03:43:09.802Z,18.15
2023-05-17T03:45:37.502Z,17.98
2023-05-17T03:48:05.272Z,18.38
2023-05-17T03:50:32.891Z,18.02
2023-05-17T03:53:00.852Z,18.27
2023-05-17T03:55:28.552Z,18.39
2023-05-17T03:57:56.200Z,18.35
2023-05-17T04:00:24.681Z,18.11
2023-05-17T04:02:56.187Z,17.96
2023-05-17T04:05:23.595Z,18.15
2023-05-17T04:07:51.170Z,18.39
2023-05-17T04:10:18.634Z,18.24
2023-05-17T04:12:46.560Z,18.37
2023-05-17T04:15:15.247Z,18.23
2023-05-17T04:17:43.814Z,18.11
2023-05-17T04:20:11.549Z,17.91
2023-05-17T04:22:39.055Z,18.32
2023-05-17T04:25:07.085Z,18.72
2023-05-17T04:27:36.039Z,18.77
2023-05-17T04:30:06.067Z,19.26
2023-05-17T04:32:34.392Z,19.25
2023-05-17T04:35:04.057Z,19.35
2023-05-17T04:37:31.658Z,19.37
2023-05-17T04:40:04.496Z,19.14
2023-05-17T04:42:33.398Z,19.45
2023-05-17T04:45:01.446Z,19.38
2023-05-17T04:47:31.747Z,19.41
2023-05-17T04:49:59.246Z,19.41
2023-05-17T04:52:26.697Z,19.15
2023-05-17T04:54:54.279Z,19.28
2023-05-17T04:57:22.934Z,19.25
2023-05-17T04:59:56.694Z,19.28
2023-05-17T05:02:25.294Z,19.30
2023-05-17T05:04:52.889Z,18.92
2023-05-17T05:07:22.989Z,18.59
2023-05-17T05:09:51.646Z,18.75
2023-05-17T05:12:19.917Z,18.82
2023-05-17T05:14:48.118Z,19.03
2023-05-17T05:17:15.743Z,19.30
2023-05-17T05:19:43.363Z,19.19
2023-05-17T05:22:11.550Z,19.11
2023-05-17T05:24:40.012Z,18.98
2023-05-17T05:27:07.905Z,19.18
2023-05-17T05:29:36.792Z,18.88
2023-05-17T05:32:04.470Z,18.66
2023-05-17T05:34:36.855Z,18.53
2023-05-17T05:37:05.075Z,18.62
2023-05-17T05:39:33.111Z,18.88
2023-05-17T05:42:01.667Z,19.27
2023-05-17T05:44:30.732Z,19.45
2023-05-17T05:46:58.675Z,19.62
2023-05-17T05:49:27.161Z,19.70
2023-05-17T05:51:55.073Z,19.93
2023-05-17T05:54:22.871Z,20.09
2023-05-17T05:56:51.908Z,20.17
2023-05-17T05:59:20.884Z,19.83
2023-05-17T06:01:49.630Z,19.78
2023-05-17T06:04:17.222Z,19.56
2023-05-17T06:06:44.741Z,19.37
2023-05-17T06:09:12.533Z,19.07
2023-05-17T06:11:40.032Z,19.66
2023-05-17T06:14:07.996Z,19.43
2023-05-17T06:16:35.495Z,19.56
2023-05-17T06:19:03.431Z,20.11
2023-05-17T06:21:31.522Z,20.11
2023-05-17T06:23:59.081Z,20.36
2023-05-17T06:26:26.411Z,19.49
2023-05-17T06:28:53.811Z,19.25
2023-05-17T06:31:21.420Z,19.79
2023-05-17T06:33:48.833Z,19.86
2023-05-17T06:36:16.282Z,19.93
2023-05-17T06:38:43.906Z,19.70
2023-05-17T06:41:11.463Z,19.74
2023-05-17T06:43:38.871Z,19.90
2023-05-17T06:46:07.310Z,19.75
2023-05-17T06:48:34.791Z,20.04
2023-05-17T06:51:03.662Z,19.86
2023-05-17T06:53:31.005Z,19.97
2023-05-17T06:55:58.360Z,19.76
2023-05-17T06:58:25.647Z,20.00
2023-05-17T07:00:52.995Z,20.27
2023-05-17T07:03:20.783Z,20.40
2023-05-17T07:05:48.230Z,20.27
2023-05-17T07:08:15.863Z,20.40
2023-05-17T07:10:43.299Z,20.40
2023-05-17T07:13:16.026Z,20.07
2023-05-17T07:15:51.112Z,20.42
2023-05-17T07:18:18.537Z,20.46
2023-05-17T07:20:46.432Z,20.21
2023-05-17T07:23:13.773Z,19.70
2023-05-17T07:25:43.127Z,19.94
2023-05-17T07:28:10.470Z,19.89
2023-05-17T07:30:37.767Z,19.50
2023-05-17T07:33:05.169Z,19.75
2023-05-17T07:35:32.688Z,19.74
2023-05-17T07:38:01.074Z,19.87
2023-05-17T07:40:31.300Z,19.85
2023-05-17T07:42:58.693Z,19.50
2023-05-17T07:45:27.178Z,19.78
2023-05-17T07:47:55.510Z,19.76
2023-05-17T07:50:23.409Z,20.34
2023-05-17T07:52:50.753Z,21.07
2023-05-17T07:55:18.096Z,21.30
2023-05-17T07:57:47.471Z,22.08
2023-05-17T08:00:15.116Z,22.35
2023-05-17T08:02:43.238Z,22.23
2023-05-17T08:05:10.775Z,22.36
2023-05-17T08:07:38.147Z,22.29
2023-05-17T08:10:05.729Z,21.45
2023-05-17T08:12:33.077Z,20.99
2023-05-17T08:15:00.473Z,21.24
2023-05-17T08:17:27.841Z,21.55
2023-05-17T08:19:55.294Z,21.44
2023-05-17T08:22:22.688Z,22.21
2023-05-17T08:24:50.068Z,22.47
2023-05-17T08:27:17.381Z,22.98
2023-05-17T08:29:47.105Z,23.05
2023-05-17T08:32:14.433Z,22.48
2023-05-17T08:34:41.848Z,22.89
2023-05-17T08:37:10.328Z,23.09
2023-05-17T08:39:37.780Z,23.17
2023-05-17T08:42:07.807Z,22.93
2023-05-17T08:44:36.536Z,22.84
2023-05-17T08:47:04.123Z,23.30
2023-05-17T08:49:34.407Z,23.28
2023-05-17T08:52:03.513Z,23.64
2023-05-17T08:54:31.105Z,23.38
2023-05-17T08:57:00.142Z,23.91
2023-05-17T08:59:34.157Z,23.96
2023-05-17T09:02:02.775Z,24.20
2023-05-17T09:04:31.404Z,24.17
2023-05-17T09:06:59.025Z,24.32
2023-05-17T09:09:27.183Z,24.82
2023-05-17T09:11:55.209Z,25.06
2023-05-17T09:14:22.551Z,25.12
2023-05-17T09:16:55.930Z,25.84
2023-05-17T09:19:23.299Z,24.85
2023-05-17T09:21:50.822Z,24.87
2023-05-17T09:24:20.335Z,25.09
2023-05-17T09:26:47.616Z,25.25
2023-05-17T09:29:19.759Z,25.38
2023-05-17T09:31:47.598Z,25.60
2023-05-17T09:34:18.243Z,25.34
2023-05-17T09:36:46.190Z,24.52
2023-05-17T09:39:15.246Z,24.89
2023-05-17T09:41:42.745Z,25.07
2023-05-17T09:44:11.059Z,25.26
2023-05-17T09:46:41.444Z,25.06
2023-05-17T09:49:09.483Z,25.35
2023-05-17T09:51:36.937Z,25.94
2023-05-17T09:54:04.276Z,26.43
2023-05-17T09:56:31.645Z,26.51
2023-05-17T09:59:01.317Z,25.48
2023-05-17T10:01:29.314Z,25.21
2023-05-17T10:03:59.675Z,26.04
2023-05-17T10:09:00.758Z,25.45
2023-05-17T10:11:34.143Z,26.06
2023-05-17T10:14:05.383Z,25.61
2023-05-17T10:16:36.799Z,24.79
2023-05-17T10:19:04.661Z,25.10
2023-05-17T10:21:32.686Z,25.46
2023-05-17T10:24:02.061Z,24.71
2023-05-17T10:26:29.658Z,25.55
2023-05-17T10:29:01.573Z,25.45
2023-05-17T10:31:29.797Z,26.23
2023-05-17T10:33:57.303Z,26.16
2023-05-17T10:36:25.059Z,26.41
2023-05-17T10:38:52.695Z,24.71
2023-05-17T10:41:21.945Z,25.66
2023-05-17T10:43:49.767Z,26.28
2023-05-17T10:46:21.420Z,25.90
2023-05-17T10:48:51.171Z,26.01
2023-05-17T10:51:25.281Z,24.58
2023-05-17T10:54:05.882Z,24.84
2023-05-17T10:56:33.530Z,25.12
2023-05-17T10:59:16.431Z,24.30
2023-05-17T11:01:55.990Z,23.82
2023-05-17T11:04:25.878Z,23.77
2023-05-17T11:06:54.705Z,24.84
2023-05-17T11:09:23.147Z,25.00
2023-05-17T11:12:06.820Z,24.53
2023-05-17T11:14:46.060Z,24.91
2023-05-17T11:17:17.974Z,25.11
2023-05-17T11:20:13.122Z,25.22
2023-05-17T11:22:42.572Z,24.97
2023-05-17T11:25:11.620Z,25.75
2023-05-17T11:27:48.858Z,25.57
2023-05-17T11:30:21.962Z,23.68
2023-05-17T11:32:50.191Z,24.71
2023-05-17T11:35:18.383Z,24.84
2023-05-17T11:37:45.874Z,24.89
2023-05-17T11:40:13.729Z,24.31
2023-05-17T11:42:41.322Z,24.15
2023-05-17T11:45:08.904Z,24.48
2023-05-17T11:47:39.271Z,24.72
2023-05-17T11:50:07.003Z,24.92
2023-05-17T11:52:34.317Z,24.50
2023-05-17T11:55:01.658Z,23.96
2023-05-17T11:57:32.176Z,24.11
2023-05-17T12:00:04.987Z,24.34
2023-05-17T12:02:39.932Z,25.15
2023-05-17T12:05:09.164Z,24.27
2023-05-17T12:07:37.469Z,24.21
2023-05-17T12:10:06.572Z,23.83
2023-05-17T12:12:33.874Z,24.34
2023-05-17T12:15:01.219Z,24.93
2023-05-17T12:17:31.760Z,25.17
2023-05-17T12:20:06.919Z,24.55
2023-05-17T12:22:34.342Z,24.85
2023-05-17T12:25:01.649Z,24.65
2023-05-17T12:27:29.258Z,24.52
2023-05-17T12:29:56.600Z,25.51
2023-05-17T12:32:24.987Z,25.64
2023-05-17T12:34:52.582Z,25.97
2023-05-17T12:37:19.926Z,25.84
2023-05-17T12:39:47.263Z,25.81
2023-05-17T12:42:15.158Z,26.14
2023-05-17T12:44:44.894Z,25.27
2023-05-17T12:47:14.649Z,25.87
2023-05-17T12:49:54.626Z,25.45
2023-05-17T12:52:22.191Z,25.96
2023-05-17T12:54:50.536Z,25.26
2023-05-17T12:57:18.710Z,25.85
2023-05-17T12:59:54.750Z,25.85
2023-05-17T13:02:23.884Z,25.98
2023-05-17T13:04:51.735Z,25.99
2023-05-17T13:07:24.185Z,25.77
2023-05-17T13:09:52.034Z,26.19
2023-05-17T13:12:21.249Z,26.02
2023-05-17T13:14:51.927Z,24.94
2023-05-17T13:17:25.553Z,25.12
2023-05-17T13:20:00.940Z,25.03
2023-05-17T13:22:34.224Z,25.55
2023-05-17T13:25:05.647Z,25.68
2023-05-17T13:27:33.390Z,24.24
2023-05-17T13:30:00.795Z,25.24
2023-05-17T13:32:31.766Z,24.05
2023-05-17T13:34:59.534Z,24.10
2023-05-17T13:37:27.002Z,23.50
2023-05-17T13:39:56.960Z,22.71
2023-05-17T13:42:24.562Z,23.18
2023-05-17T13:44:52.013Z,23.32
2023-05-17T13:47:19.414Z,23.25
2023-05-17T13:49:46.819Z,22.84
2023-05-17T13:52:14.702Z,23.44
2023-05-17T13:54:42.125Z,23.21
2023-05-17T13:57:09.609Z,23.41
2023-05-17T13:59:37.132Z,24.00
2023-05-17T14:02:04.758Z,23.84
2023-05-17T14:04:32.374Z,23.42
2023-05-17T14:06:59.717Z,23.58
2023-05-17T14:09:27.078Z,23.51
2023-05-17T14:11:54.566Z,23.67
2023-05-17T14:14:25.109Z,23.39
2023-05-17T14:16:52.456Z,23.31
2023-05-17T14:19:38.037Z,24.02
2023-05-17T14:22:15.942Z,24.52
2023-05-17T14:24:43.336Z,23.41
2023-05-17T14:27:11.706Z,22.51
2023-05-17T14:29:39.071Z,23.02
2023-05-17T14:32:06.892Z,23.40
2023-05-17T14:34:34.421Z,23.12
2023-05-17T14:37:04.113Z,23.05
2023-05-17T14:39:32.245Z,23.39
2023-05-17T14:41:59.896Z,23.76
2023-05-17T14:44:27.406Z,23.23
2023-05-17T14:46:57.268Z,23.35
2023-05-17T14:49:25.853Z,23.95
2023-05-17T14:51:54.083Z,23.30
2023-05-17T14:54:21.960Z,23.67
2023-05-17T14:56:49.305Z,23.29
2023-05-17T14:59:16.553Z,23.39
2023-05-17T15:01:43.865Z,23.67
2023-05-17T15:04:11.400Z,23.96
2023-05-17T15:06:38.786Z,24.13
2023-05-17T15:09:06.407Z,24.04
2023-05-17T15:11:33.945Z,24.77
2023-05-17T15:14:03.518Z,24.53
2023-05-17T15:16:30.812Z,23.62
2023-05-17T15:18:58.348Z,23.75
2023-05-17T15:21:25.683Z,23.84
2023-05-17T15:23:52.890Z,23.45
2023-05-17T15:26:20.252Z,22.94
2023-05-17T15:28:50.028Z,23.24
2023-05-17T15:31:17.360Z,23.10
2023-05-17T15:33:44.614Z,23.12
2023-05-17T15:36:13.222Z,23.73
2023-05-17T15:38:40.709Z,23.54
2023-05-17T15:41:10.953Z,22.85
2023-05-17T15:43:38.377Z,22.76
2023-05-17T15:46:05.916Z,23.53
2023-05-17T15:48:34.368Z,23.12
2023-05-17T15:51:02.070Z,23.23
2023-05-17T15:53:30.266Z,23.83
2023-05-17T15:55:57.584Z,22.99
2023-05-17T15:58:28.245Z,23.74
2023-05-17T16:00:55.584Z,23.20
2023-05-17T16:03:22.767Z,23.24
2023-05-17T16:05:50.047Z,23.17
2023-05-17T16:08:17.525Z,23.61
2023-05-17T16:10:44.830Z,23.28
2023-05-17T16:13:12.467Z,23.94
2023-05-17T16:15:39.702Z,23.38
2023-05-17T16:18:07.220Z,23.86
2023-05-17T16:20:34.607Z,24.44
2023-05-17T16:23:01.883Z,24.00
2023-05-17T16:25:29.260Z,23.87
2023-05-17T16:27:57.232Z,23.57
2023-05-17T16:30:24.714Z,23.35
2023-05-17T16:32:53.151Z,23.08
2023-05-17T16:35:23.256Z,22.85
2023-05-17T16:37:50.576Z,24.07
2023-05-17T16:40:17.837Z,23.62
2023-05-17T16:42:45.269Z,22.92
2023-05-17T16:45:12.600Z,22.03
2023-05-17T16:47:40.432Z,22.29
2023-05-17T16:50:09.176Z,22.63
2023-05-17T16:52:40.083Z,22.71
2023-05-17T16:55:27.538Z,22.48
2023-05-17T16:57:55.046Z,22.26
2023-05-17T17:00:23.142Z,22.35
2023-05-17T17:02:50.685Z,22.41
2023-05-17T17:05:18.208Z,22.87
2023-05-17T17:07:47.382Z,22.88
2023-05-17T17:10:14.814Z,23.10
2023-05-17T17:12:42.257Z,22.11
2023-05-17T17:15:10.013Z,22.46
2023-05-17T17:17:37.608Z,22.58
2023-05-17T17:20:05.811Z,23.18
2023-05-17T17:22:33.118Z,22.92
2023-05-17T17:25:00.594Z,23.27
2023-05-17T17:27:28.009Z,22.95
2023-05-17T17:29:55.723Z,23.42
2023-05-17T17:32:23.243Z,23.40
2023-05-17T17:34:50.814Z,23.54
2023-05-17T17:37:18.305Z,23.41
2023-05-17T17:39:45.758Z,23.65
2023-05-17T17:42:13.268Z,23.66
2023-05-17T17:44:40.645Z,23.68
2023-05-17T17:47:08.291Z,23.96
2023-05-17T17:49:36.172Z,23.67
2023-05-17T17:52:03.640Z,23.83
2023-05-17T17:54:31.070Z,24.06
2023-05-17T17:56:58.534Z,24.40
2023-05-17T17:59:26.060Z,24.22
2023-05-17T18:01:53.546Z,24.20
2023-05-17T18:04:20.963Z,23.81
2023-05-17T18:06:48.376Z,23.85
2023-05-17T18:09:15.985Z,23.71
2023-05-17T18:11:43.333Z,23.66
2023-05-17T18:14:10.664Z,23.25
2023-05-17T18:16:38.106Z,23.25
2023-05-17T18:19:05.558Z,23.29
2023-05-17T18:21:32.959Z,23.15
2023-05-17T18:24:00.573Z,22.96
2023-05-17T18:26:27.937Z,23.04
2023-05-17T18:28:55.268Z,22.77
2023-05-17T18:31:22.652Z,22.77
2023-05-17T18:33:49.997Z,23.07
2023-05-17T18:36:17.283Z,22.97
2023-05-17T18:38:44.803Z,22.66
2023-05-17T18:41:12.096Z,22.41
2023-05-17T18:43:39.428Z,22.11
2023-05-17T18:46:06.783Z,21.93
2023-05-17T18:48:36.589Z,22.20
2023-05-17T18:51:03.976Z,22.33
2023-05-17T18:53:36.029Z,22.06
2023-05-17T18:56:03.610Z,22.19
2023-05-17T18:58:39.598Z,22.40
2023-05-17T19:01:12.466Z,22.55
2023-05-17T19:03:41.227Z,22.46
2023-05-17T19:06:11.471Z,22.23
2023-05-17T19:08:42.210Z,22.04
2023-05-17T19:11:24.350Z,22.10
2023-05-17T19:14:00.200Z,21.95
2023-05-17T19:17:03.936Z,21.93
2023-05-17T19:19:34.646Z,22.17
2023-05-17T19:22:14.725Z,22.38
2023-05-17T19:24:42.836Z,22.53
2023-05-17T19:27:17.739Z,22.61
2023-05-17T19:29:49.872Z,22.77
2023-05-17T19:32:19.251Z,22.92
2023-05-17T19:34:48.640Z,22.69
2023-05-17T19:37:16.595Z,22.54
2023-05-17T19:39:48.433Z,22.58
2023-05-17T19:42:22.088Z,22.49
2023-05-17T19:44:53.799Z,22.74
2023-05-17T19:47:26.501Z,22.97
2023-05-17T19:49:56.749Z,22.97
2023-05-17T19:52:41.198Z,22.94
2023-05-17T19:55:35.073Z,22.95
2023-05-17T19:58:25.614Z,22.87
2023-05-17T20:00:53.855Z,22.62
2023-05-17T20:03:22.758Z,22.39
2023-05-17T20:05:56.742Z,21.94
2023-05-17T20:08:27.047Z,22.22
2023-05-17T20:10:54.732Z,22.22
2023-05-17T20:13:25.616Z,22.17
2023-05-17T20:15:56.424Z,22.13
2023-05-17T20:18:30.163Z,22.08
2023-05-17T20:20:57.980Z,21.73
2023-05-17T20:23:28.679Z,21.44
2023-05-17T20:25:56.226Z,21.50
2023-05-17T20:28:26.046Z,21.41
2023-05-17T20:30:53.624Z,21.21
2023-05-17T20:33:26.469Z,21.46
2023-05-17T20:35:56.310Z,21.50
2023-05-17T20:38:23.830Z,21.04
2023-05-17T20:40:52.157Z,21.34
2023-05-17T20:43:19.962Z,21.41
2023-05-17T20:49:32.102Z,20.89
2023-05-17T20:52:03.526Z,20.97
2023-05-17T20:54:31.240Z,21.09
2023-05-17T20:56:58.751Z,20.89
2023-05-17T20:59:26.698Z,21.08
2023-05-17T21:01:55.404Z,20.81
2023-05-17T21:04:22.893Z,20.81
2023-05-17T21:06:50.263Z,20.63
2023-05-17T21:09:18.993Z,20.48
2023-05-17T21:11:55.255Z,20.62
2023-05-17T21:14:23.777Z,20.59
2023-05-17T21:16:53.929Z,20.77
2023-05-17T21:19:22.746Z,20.64
2023-05-17T21:22:00.507Z,20.40
2023-05-17T21:24:29.219Z,20.48
2023-05-17T21:26:56.844Z,20.34
2023-05-17T21:29:53.758Z,20.25
2023-05-17T21:32:21.332Z,20.22
2023-05-17T21:34:48.897Z,19.77
2023-05-17T21:37:18.667Z,20.41
2023-05-17T21:39:46.140Z,20.57
2023-05-17T21:42:13.597Z,20.88
2023-05-17T21:44:41.187Z,20.86
2023-05-17T21:47:09.059Z,20.52
2023-05-17T21:49:36.519Z,20.51
2023-05-17T21:52:33.275Z,20.49
2023-05-17T21:55:51.376Z,20.71
2023-05-17T21:58:30.030Z,20.68
2023-05-17T22:00:57.571Z,20.40
2023-05-17T22:03:25.557Z,20.26
2023-05-17T22:05:53.113Z,20.53
2023-05-17T22:08:21.762Z,20.47
2023-05-17T22:10:50.343Z,20.24
2023-05-17T22:13:18.436Z,20.22
2023-05-17T22:15:45.938Z,20.30
2023-05-17T22:18:13.975Z,20.22
2023-05-17T22:20:41.470Z,20.09
2023-05-17T22:23:10.114Z,20.08
2023-05-17T22:25:37.533Z,19.86
2023-05-17T22:28:04.971Z,20.04
2023-05-17T22:30:32.568Z,20.05
2023-05-17T22:33:01.226Z,19.91
2023-05-17T22:35:28.770Z,19.89
2023-05-17T22:37:56.219Z,20.31
2023-05-17T22:40:23.681Z,20.43
2023-05-17T22:42:51.989Z,19.96
2023-05-17T22:45:19.463Z,20.38
2023-05-17T22:47:47.069Z,20.22
2023-05-17T22:50:15.726Z,20.32
2023-05-17T22:52:43.372Z,20.57
2023-05-17T22:55:11.033Z,20.61
2023-05-17T22:57:38.592Z,20.46
2023-05-17T23:00:08.786Z,20.20
2023-05-17T23:02:36.406Z,20.32
2023-05-17T23:05:04.125Z,20.18
2023-05-17T23:07:37.270Z,20.22
2023-05-17T23:10:05.404Z,20.14
2023-05-17T23:12:33.418Z,19.78
2023-05-17T23:15:00.805Z,19.99
2023-05-17T23:17:32.681Z,20.27
2023-05-17T23:20:08.077Z,20.33
2023-05-17T23:22:35.966Z,20.31
2023-05-17T23:25:03.773Z,19.73
2023-05-17T23:27:31.657Z,19.57
2023-05-17T23:29:59.208Z,19.82
2023-05-17T23:32:26.928Z,20.08
2023-05-17T23:34:58.506Z,19.96
2023-05-17T23:37:26.097Z,19.62
2023-05-17T23:39:53.471Z,19.64
2023-05-17T23:42:22.413Z,19.63
2023-05-17T23:44:49.781Z,19.74
2023-05-17T23:47:17.241Z,19.60
2023-05-17T23:49:44.568Z,19.54
2023-05-17T23:52:12.046Z,19.42
2023-05-17T23:54:42.188Z,19.47
2023-05-17T23:57:09.549Z,19.14
2023-05-17T23:59:37.335Z,19.13
